sensor_id;sensor_type;location;lat;lon;timestamp;P1;durP1;ratioP1;P2;durP2;ratioP2
20637;SDS011;10478;49.004;8.470;2024-02-14T00:02:07;14.93;;;3.35;;
20637;SDS011;10478;49.004;8.470;2024-02-14T00:04:32;7.07;;;3.15;;
20637;SDS011;10478;49.004;8.470;2024-02-14T00:06:58;11.68;;;2.90;;
20637;SDS011;10478;49.004;8.470;2024-02-14T00:09:23;6.50;;;2.80;;
20637;SDS011;10478;49.004;8.470;2024-02-14T00:11:48;6.13;;;3.88;;
20637;SDS011;10478;49.004;8.470;2024-02-14T00:14:13;4.82;;;2.97;;
20637;SDS011;10478;49.004;8.470;2024-02-14T00:16:39;5.30;;;3.28;;
20637;SDS011;10478;49.004;8.470;2024-02-14T00:19:04;7.53;;;3.70;;
20637;SDS011;10478;49.004;8.470;2024-02-14T00:21:30;5.07;;;3.15;;
20637;SDS011;10478;49.004;8.470;2024-02-14T00:23:56;6.68;;;2.65;;
20637;SDS011;10478;49.004;8.470;2024-02-14T00:26:23;7.18;;;3.45;;
20637;SDS011;10478;49.004;8.470;2024-02-14T00:28:48;7.07;;;2.63;;
20637;SDS011;10478;49.004;8.470;2024-02-14T00:31:14;5.80;;;3.13;;
20637;SDS011;10478;49.004;8.470;2024-02-14T00:33:39;8.85;;;3.58;;
20637;SDS011;10478;49.004;8.470;2024-02-14T00:36:05;7.28;;;2.47;;
20637;SDS011;10478;49.004;8.470;2024-02-14T00:38:30;6.53;;;3.17;;
20637;SDS011;10478;49.004;8.470;2024-02-14T00:40:56;5.35;;;3.20;;
20637;SDS011;10478;49.004;8.470;2024-02-14T00:43:22;8.73;;;3.50;;
20637;SDS011;10478;49.004;8.470;2024-02-14T00:45:47;7.20;;;3.50;;
20637;SDS011;10478;49.004;8.470;2024-02-14T00:48:13;4.93;;;3.08;;
20637;SDS011;10478;49.004;8.470;2024-02-14T00:50:38;7.72;;;3.13;;
20637;SDS011;10478;49.004;8.470;2024-02-14T00:53:03;7.35;;;3.10;;
20637;SDS011;10478;49.004;8.470;2024-02-14T00:55:29;4.28;;;2.63;;
20637;SDS011;10478;49.004;8.470;2024-02-14T00:57:54;5.53;;;2.78;;
20637;SDS011;10478;49.004;8.470;2024-02-14T01:00:19;9.32;;;3.60;;
20637;SDS011;10478;49.004;8.470;2024-02-14T01:02:45;6.45;;;3.33;;
20637;SDS011;10478;49.004;8.470;2024-02-14T01:05:10;6.25;;;3.53;;
20637;SDS011;10478;49.004;8.470;2024-02-14T01:07:35;6.95;;;3.00;;
20637;SDS011;10478;49.004;8.470;2024-02-14T01:10:01;7.63;;;3.30;;
20637;SDS011;10478;49.004;8.470;2024-02-14T01:12:26;5.45;;;2.55;;
20637;SDS011;10478;49.004;8.470;2024-02-14T01:14:52;4.88;;;3.45;;
20637;SDS011;10478;49.004;8.470;2024-02-14T01:17:17;8.48;;;3.20;;
20637;SDS011;10478;49.004;8.470;2024-02-14T01:19:42;5.80;;;2.83;;
20637;SDS011;10478;49.004;8.470;2024-02-14T01:22:08;8.55;;;3.35;;
20637;SDS011;10478;49.004;8.470;2024-02-14T01:24:34;5.10;;;2.88;;
20637;SDS011;10478;49.004;8.470;2024-02-14T01:26:59;5.32;;;2.88;;
20637;SDS011;10478;49.004;8.470;2024-02-14T01:29:25;8.48;;;2.67;;
20637;SDS011;10478;49.004;8.470;2024-02-14T01:31:50;7.90;;;2.72;;
20637;SDS011;10478;49.004;8.470;2024-02-14T01:34:16;7.35;;;3.05;;
20637;SDS011;10478;49.004;8.470;2024-02-14T01:36:41;4.93;;;2.25;;
20637;SDS011;10478;49.004;8.470;2024-02-14T01:39:07;6.95;;;3.10;;
20637;SDS011;10478;49.004;8.470;2024-02-14T01:41:36;4.95;;;2.65;;
20637;SDS011;10478;49.004;8.470;2024-02-14T01:44:02;5.28;;;2.38;;
20637;SDS011;10478;49.004;8.470;2024-02-14T01:46:27;4.72;;;2.83;;
20637;SDS011;10478;49.004;8.470;2024-02-14T01:48:53;6.38;;;2.45;;
20637;SDS011;10478;49.004;8.470;2024-02-14T01:51:19;5.68;;;2.67;;
20637;SDS011;10478;49.004;8.470;2024-02-14T01:53:45;6.13;;;2.35;;
20637;SDS011;10478;49.004;8.470;2024-02-14T01:56:10;13.73;;;3.13;;
20637;SDS011;10478;49.004;8.470;2024-02-14T01:58:36;6.63;;;2.90;;
20637;SDS011;10478;49.004;8.470;2024-02-14T02:01:02;6.28;;;3.35;;
20637;SDS011;10478;49.004;8.470;2024-02-14T02:03:28;4.72;;;2.85;;
20637;SDS011;10478;49.004;8.470;2024-02-14T02:05:54;4.40;;;2.90;;
20637;SDS011;10478;49.004;8.470;2024-02-14T02:08:20;4.82;;;3.42;;
20637;SDS011;10478;49.004;8.470;2024-02-14T02:10:46;11.02;;;3.53;;
20637;SDS011;10478;49.004;8.470;2024-02-14T02:13:11;5.03;;;2.63;;
20637;SDS011;10478;49.004;8.470;2024-02-14T02:15:37;9.00;;;3.28;;
20637;SDS011;10478;49.004;8.470;2024-02-14T02:18:03;4.55;;;2.42;;
20637;SDS011;10478;49.004;8.470;2024-02-14T02:20:30;6.13;;;3.13;;
20637;SDS011;10478;49.004;8.470;2024-02-14T02:22:57;5.78;;;3.15;;
20637;SDS011;10478;49.004;8.470;2024-02-14T02:25:22;7.18;;;3.30;;
20637;SDS011;10478;49.004;8.470;2024-02-14T02:27:50;7.53;;;2.65;;
20637;SDS011;10478;49.004;8.470;2024-02-14T02:30:16;5.50;;;3.17;;
20637;SDS011;10478;49.004;8.470;2024-02-14T02:32:42;5.32;;;2.55;;
20637;SDS011;10478;49.004;8.470;2024-02-14T02:35:07;10.93;;;3.33;;
20637;SDS011;10478;49.004;8.470;2024-02-14T02:37:34;6.25;;;2.97;;
20637;SDS011;10478;49.004;8.470;2024-02-14T02:40:00;4.38;;;2.58;;
20637;SDS011;10478;49.004;8.470;2024-02-14T02:42:25;4.82;;;2.53;;
20637;SDS011;10478;49.004;8.470;2024-02-14T02:44:50;5.93;;;3.33;;
20637;SDS011;10478;49.004;8.470;2024-02-14T02:47:16;4.82;;;2.92;;
20637;SDS011;10478;49.004;8.470;2024-02-14T02:49:42;4.20;;;2.70;;
20637;SDS011;10478;49.004;8.470;2024-02-14T02:52:09;8.18;;;2.85;;
20637;SDS011;10478;49.004;8.470;2024-02-14T02:54:38;7.57;;;2.65;;
20637;SDS011;10478;49.004;8.470;2024-02-14T02:57:05;11.18;;;3.50;;
20637;SDS011;10478;49.004;8.470;2024-02-14T02:59:31;7.43;;;2.72;;
20637;SDS011;10478;49.004;8.470;2024-02-14T03:01:57;6.03;;;2.60;;
20637;SDS011;10478;49.004;8.470;2024-02-14T03:04:23;6.05;;;2.85;;
20637;SDS011;10478;49.004;8.470;2024-02-14T03:06:49;6.03;;;3.53;;
20637;SDS011;10478;49.004;8.470;2024-02-14T03:09:14;9.27;;;2.92;;
20637;SDS011;10478;49.004;8.470;2024-02-14T03:11:39;5.95;;;2.83;;
20637;SDS011;10478;49.004;8.470;2024-02-14T03:14:05;5.30;;;2.72;;
20637;SDS011;10478;49.004;8.470;2024-02-14T03:16:32;8.77;;;2.63;;
20637;SDS011;10478;49.004;8.470;2024-02-14T03:18:58;3.92;;;2.67;;
20637;SDS011;10478;49.004;8.470;2024-02-14T03:21:23;5.82;;;2.20;;
20637;SDS011;10478;49.004;8.470;2024-02-14T03:23:49;7.85;;;2.65;;
20637;SDS011;10478;49.004;8.470;2024-02-14T03:26:14;3.35;;;1.92;;
20637;SDS011;10478;49.004;8.470;2024-02-14T03:28:39;6.50;;;2.47;;
20637;SDS011;10478;49.004;8.470;2024-02-14T03:31:05;4.70;;;1.85;;
20637;SDS011;10478;49.004;8.470;2024-02-14T03:33:30;5.45;;;2.67;;
20637;SDS011;10478;49.004;8.470;2024-02-14T03:35:55;5.18;;;2.30;;
20637;SDS011;10478;49.004;8.470;2024-02-14T03:38:24;3.80;;;2.33;;
20637;SDS011;10478;49.004;8.470;2024-02-14T03:40:52;6.00;;;2.83;;
20637;SDS011;10478;49.004;8.470;2024-02-14T03:43:18;5.72;;;2.47;;
20637;SDS011;10478;49.004;8.470;2024-02-14T03:45:44;6.28;;;2.63;;
20637;SDS011;10478;49.004;8.470;2024-02-14T03:48:10;3.80;;;2.38;;
20637;SDS011;10478;49.004;8.470;2024-02-14T03:50:37;4.45;;;2.38;;
20637;SDS011;10478;49.004;8.470;2024-02-14T03:53:03;7.43;;;2.30;;
20637;SDS011;10478;49.004;8.470;2024-02-14T03:55:29;6.53;;;2.45;;
20637;SDS011;10478;49.004;8.470;2024-02-14T03:57:55;3.30;;;1.70;;
20637;SDS011;10478;49.004;8.470;2024-02-14T04:00:21;4.50;;;1.95;;
20637;SDS011;10478;49.004;8.470;2024-02-14T04:02:47;6.18;;;2.65;;
20637;SDS011;10478;49.004;8.470;2024-02-14T04:05:14;5.05;;;2.47;;
20637;SDS011;10478;49.004;8.470;2024-02-14T04:07:39;4.47;;;2.30;;
20637;SDS011;10478;49.004;8.470;2024-02-14T04:10:04;5.10;;;2.47;;
20637;SDS011;10478;49.004;8.470;2024-02-14T04:12:30;4.97;;;2.40;;
20637;SDS011;10478;49.004;8.470;2024-02-14T04:14:56;5.18;;;2.70;;
20637;SDS011;10478;49.004;8.470;2024-02-14T04:17:21;3.67;;;1.75;;
20637;SDS011;10478;49.004;8.470;2024-02-14T04:19:47;6.68;;;2.15;;
20637;SDS011;10478;49.004;8.470;2024-02-14T04:22:12;4.30;;;2.00;;
20637;SDS011;10478;49.004;8.470;2024-02-14T04:24:37;5.25;;;3.05;;
20637;SDS011;10478;49.004;8.470;2024-02-14T04:27:04;5.38;;;2.08;;
20637;SDS011;10478;49.004;8.470;2024-02-14T04:29:29;3.88;;;2.00;;
20637;SDS011;10478;49.004;8.470;2024-02-14T04:31:57;2.25;;;1.58;;
20637;SDS011;10478;49.004;8.470;2024-02-14T04:34:23;1.90;;;1.27;;
20637;SDS011;10478;49.004;8.470;2024-02-14T04:36:48;6.63;;;2.17;;
20637;SDS011;10478;49.004;8.470;2024-02-14T04:39:14;4.80;;;1.73;;
20637;SDS011;10478;49.004;8.470;2024-02-14T04:41:39;4.97;;;1.83;;
20637;SDS011;10478;49.004;8.470;2024-02-14T04:44:04;5.35;;;2.03;;
20637;SDS011;10478;49.004;8.470;2024-02-14T04:46:33;3.80;;;2.00;;
20637;SDS011;10478;49.004;8.470;2024-02-14T04:49:00;3.80;;;2.13;;
20637;SDS011;10478;49.004;8.470;2024-02-14T04:51:26;3.92;;;1.92;;
20637;SDS011;10478;49.004;8.470;2024-02-14T04:53:52;3.35;;;2.00;;
20637;SDS011;10478;49.004;8.470;2024-02-14T04:56:17;2.60;;;1.55;;
20637;SDS011;10478;49.004;8.470;2024-02-14T04:58:42;4.50;;;2.38;;
20637;SDS011;10478;49.004;8.470;2024-02-14T05:01:08;4.47;;;2.05;;
20637;SDS011;10478;49.004;8.470;2024-02-14T05:03:33;4.57;;;2.00;;
20637;SDS011;10478;49.004;8.470;2024-02-14T05:06:01;4.20;;;2.08;;
20637;SDS011;10478;49.004;8.470;2024-02-14T05:08:27;2.72;;;1.80;;
20637;SDS011;10478;49.004;8.470;2024-02-14T05:10:53;3.53;;;1.55;;
20637;SDS011;10478;49.004;8.470;2024-02-14T05:13:18;3.58;;;1.80;;
20637;SDS011;10478;49.004;8.470;2024-02-14T05:15:44;7.97;;;2.42;;
20637;SDS011;10478;49.004;8.470;2024-02-14T05:18:09;5.30;;;2.13;;
20637;SDS011;10478;49.004;8.470;2024-02-14T05:20:34;3.53;;;2.10;;
20637;SDS011;10478;49.004;8.470;2024-02-14T05:22:59;3.60;;;2.40;;
20637;SDS011;10478;49.004;8.470;2024-02-14T05:25:25;5.32;;;1.90;;
20637;SDS011;10478;49.004;8.470;2024-02-14T05:27:52;4.28;;;1.85;;
20637;SDS011;10478;49.004;8.470;2024-02-14T05:30:18;3.17;;;1.80;;
20637;SDS011;10478;49.004;8.470;2024-02-14T05:32:43;3.38;;;1.85;;
20637;SDS011;10478;49.004;8.470;2024-02-14T05:35:08;3.97;;;1.75;;
20637;SDS011;10478;49.004;8.470;2024-02-14T05:37:34;29.98;;;14.05;;
20637;SDS011;10478;49.004;8.470;2024-02-14T05:40:01;34.35;;;16.15;;
20637;SDS011;10478;49.004;8.470;2024-02-14T05:42:27;72.75;;;34.38;;
20637;SDS011;10478;49.004;8.470;2024-02-14T05:44:52;72.82;;;37.17;;
20637;SDS011;10478;49.004;8.470;2024-02-14T05:47:18;22.13;;;10.98;;
20637;SDS011;10478;49.004;8.470;2024-02-14T05:49:44;8.57;;;4.15;;
20637;SDS011;10478;49.004;8.470;2024-02-14T05:52:09;6.53;;;3.03;;
20637;SDS011;10478;49.004;8.470;2024-02-14T05:54:34;5.25;;;2.25;;
20637;SDS011;10478;49.004;8.470;2024-02-14T05:57:00;4.68;;;2.08;;
20637;SDS011;10478;49.004;8.470;2024-02-14T05:59:29;4.72;;;1.40;;
20637;SDS011;10478;49.004;8.470;2024-02-14T06:01:55;4.63;;;1.92;;
20637;SDS011;10478;49.004;8.470;2024-02-14T06:04:20;4.80;;;1.80;;
20637;SDS011;10478;49.004;8.470;2024-02-14T06:06:46;4.60;;;2.05;;
20637;SDS011;10478;49.004;8.470;2024-02-14T06:09:11;4.35;;;2.28;;
20637;SDS011;10478;49.004;8.470;2024-02-14T06:11:37;4.63;;;1.95;;
20637;SDS011;10478;49.004;8.470;2024-02-14T06:14:08;4.18;;;2.40;;
20637;SDS011;10478;49.004;8.470;2024-02-14T06:16:34;5.05;;;1.80;;
20637;SDS011;10478;49.004;8.470;2024-02-14T06:18:59;4.22;;;2.33;;
20637;SDS011;10478;49.004;8.470;2024-02-14T06:21:25;6.70;;;1.83;;
20637;SDS011;10478;49.004;8.470;2024-02-14T06:23:51;2.95;;;1.58;;
20637;SDS011;10478;49.004;8.470;2024-02-14T06:26:17;5.20;;;2.00;;
20637;SDS011;10478;49.004;8.470;2024-02-14T06:28:42;2.45;;;1.58;;
20637;SDS011;10478;49.004;8.470;2024-02-14T06:31:08;4.00;;;1.98;;
20637;SDS011;10478;49.004;8.470;2024-02-14T06:33:34;3.85;;;1.67;;
20637;SDS011;10478;49.004;8.470;2024-02-14T06:35:59;6.57;;;2.10;;
20637;SDS011;10478;49.004;8.470;2024-02-14T06:38:25;40.90;;;17.75;;
20637;SDS011;10478;49.004;8.470;2024-02-14T06:40:50;13.57;;;4.65;;
20637;SDS011;10478;49.004;8.470;2024-02-14T06:43:16;6.60;;;2.95;;
20637;SDS011;10478;49.004;8.470;2024-02-14T06:45:41;4.75;;;1.90;;
20637;SDS011;10478;49.004;8.470;2024-02-14T06:48:07;4.18;;;1.88;;
20637;SDS011;10478;49.004;8.470;2024-02-14T06:50:33;2.92;;;1.85;;
20637;SDS011;10478;49.004;8.470;2024-02-14T06:52:58;5.55;;;1.70;;
20637;SDS011;10478;49.004;8.470;2024-02-14T06:55:25;3.50;;;1.67;;
20637;SDS011;10478;49.004;8.470;2024-02-14T06:57:51;3.30;;;1.35;;
20637;SDS011;10478;49.004;8.470;2024-02-14T07:00:16;4.07;;;1.77;;
20637;SDS011;10478;49.004;8.470;2024-02-14T07:02:42;2.03;;;1.35;;
20637;SDS011;10478;49.004;8.470;2024-02-14T07:05:08;8.20;;;1.63;;
20637;SDS011;10478;49.004;8.470;2024-02-14T07:07:37;3.38;;;1.15;;
20637;SDS011;10478;49.004;8.470;2024-02-14T07:10:03;4.10;;;1.45;;
20637;SDS011;10478;49.004;8.470;2024-02-14T07:12:31;3.97;;;1.48;;
20637;SDS011;10478;49.004;8.470;2024-02-14T07:14:56;4.65;;;1.45;;
20637;SDS011;10478;49.004;8.470;2024-02-14T07:17:22;2.20;;;1.30;;
20637;SDS011;10478;49.004;8.470;2024-02-14T07:19:47;2.70;;;1.27;;
20637;SDS011;10478;49.004;8.470;2024-02-14T07:22:14;1.67;;;1.13;;
20637;SDS011;10478;49.004;8.470;2024-02-14T07:24:40;2.50;;;0.90;;
20637;SDS011;10478;49.004;8.470;2024-02-14T07:27:07;6.63;;;1.92;;
20637;SDS011;10478;49.004;8.470;2024-02-14T07:29:32;7.22;;;1.70;;
20637;SDS011;10478;49.004;8.470;2024-02-14T07:31:58;4.38;;;1.15;;
20637;SDS011;10478;49.004;8.470;2024-02-14T07:34:26;3.60;;;1.50;;
20637;SDS011;10478;49.004;8.470;2024-02-14T07:36:51;3.70;;;1.20;;
20637;SDS011;10478;49.004;8.470;2024-02-14T07:39:16;2.70;;;1.35;;
20637;SDS011;10478;49.004;8.470;2024-02-14T07:41:42;3.70;;;1.67;;
20637;SDS011;10478;49.004;8.470;2024-02-14T07:44:07;2.50;;;1.42;;
20637;SDS011;10478;49.004;8.470;2024-02-14T07:46:32;2.47;;;1.25;;
20637;SDS011;10478;49.004;8.470;2024-02-14T07:48:58;4.50;;;1.58;;
20637;SDS011;10478;49.004;8.470;2024-02-14T07:51:23;4.72;;;1.63;;
20637;SDS011;10478;49.004;8.470;2024-02-14T07:53:49;4.22;;;1.45;;
20637;SDS011;10478;49.004;8.470;2024-02-14T07:56:15;5.00;;;1.30;;
20637;SDS011;10478;49.004;8.470;2024-02-14T07:58:43;5.07;;;1.30;;
20637;SDS011;10478;49.004;8.470;2024-02-14T08:01:08;5.03;;;1.30;;
20637;SDS011;10478;49.004;8.470;2024-02-14T08:03:33;2.15;;;1.05;;
20637;SDS011;10478;49.004;8.470;2024-02-14T08:05:59;5.63;;;1.40;;
20637;SDS011;10478;49.004;8.470;2024-02-14T08:08:25;6.47;;;1.40;;
20637;SDS011;10478;49.004;8.470;2024-02-14T08:10:52;3.35;;;1.05;;
20637;SDS011;10478;49.004;8.470;2024-02-14T08:13:17;3.45;;;1.10;;
20637;SDS011;10478;49.004;8.470;2024-02-14T08:15:43;3.97;;;1.55;;
20637;SDS011;10478;49.004;8.470;2024-02-14T08:18:08;2.80;;;1.30;;
20637;SDS011;10478;49.004;8.470;2024-02-14T08:20:33;5.80;;;1.30;;
20637;SDS011;10478;49.004;8.470;2024-02-14T08:22:59;2.28;;;1.33;;
20637;SDS011;10478;49.004;8.470;2024-02-14T08:25:24;4.63;;;1.13;;
20637;SDS011;10478;49.004;8.470;2024-02-14T08:27:49;5.22;;;1.50;;
20637;SDS011;10478;49.004;8.470;2024-02-14T08:30:16;2.65;;;1.20;;
20637;SDS011;10478;49.004;8.470;2024-02-14T08:32:42;5.65;;;1.60;;
20637;SDS011;10478;49.004;8.470;2024-02-14T08:35:07;3.15;;;2.10;;
20637;SDS011;10478;49.004;8.470;2024-02-14T08:37:34;3.63;;;1.85;;
20637;SDS011;10478;49.004;8.470;2024-02-14T08:40:02;4.45;;;2.30;;
20637;SDS011;10478;49.004;8.470;2024-02-14T08:42:30;6.63;;;1.85;;
20637;SDS011;10478;49.004;8.470;2024-02-14T08:44:56;3.85;;;1.75;;
20637;SDS011;10478;49.004;8.470;2024-02-14T08:47:21;3.15;;;1.80;;
20637;SDS011;10478;49.004;8.470;2024-02-14T08:49:46;4.80;;;1.85;;
20637;SDS011;10478;49.004;8.470;2024-02-14T08:52:12;8.48;;;2.28;;
20637;SDS011;10478;49.004;8.470;2024-02-14T08:54:37;9.15;;;2.85;;
20637;SDS011;10478;49.004;8.470;2024-02-14T08:57:03;7.90;;;2.80;;
20637;SDS011;10478;49.004;8.470;2024-02-14T08:59:28;7.60;;;2.55;;
20637;SDS011;10478;49.004;8.470;2024-02-14T09:01:54;6.18;;;1.42;;
20637;SDS011;10478;49.004;8.470;2024-02-14T09:04:19;7.97;;;1.60;;
20637;SDS011;10478;49.004;8.470;2024-02-14T09:06:44;5.05;;;1.42;;
20637;SDS011;10478;49.004;8.470;2024-02-14T09:09:10;3.83;;;1.38;;
20637;SDS011;10478;49.004;8.470;2024-02-14T09:11:36;4.60;;;1.63;;
20637;SDS011;10478;49.004;8.470;2024-02-14T09:14:02;2.00;;;1.30;;
20637;SDS011;10478;49.004;8.470;2024-02-14T09:16:31;3.05;;;1.13;;
20637;SDS011;10478;49.004;8.470;2024-02-14T09:18:57;3.63;;;1.50;;
20637;SDS011;10478;49.004;8.470;2024-02-14T09:21:23;5.47;;;1.55;;
20637;SDS011;10478;49.004;8.470;2024-02-14T09:23:48;3.53;;;1.80;;
20637;SDS011;10478;49.004;8.470;2024-02-14T09:26:13;2.53;;;1.17;;
20637;SDS011;10478;49.004;8.470;2024-02-14T09:28:41;4.22;;;1.33;;
20637;SDS011;10478;49.004;8.470;2024-02-14T09:31:06;2.15;;;1.00;;
20637;SDS011;10478;49.004;8.470;2024-02-14T09:33:34;3.13;;;1.50;;
20637;SDS011;10478;49.004;8.470;2024-02-14T09:36:01;6.88;;;1.50;;
20637;SDS011;10478;49.004;8.470;2024-02-14T09:38:27;3.65;;;0.88;;
20637;SDS011;10478;49.004;8.470;2024-02-14T09:40:53;5.00;;;1.27;;
20637;SDS011;10478;49.004;8.470;2024-02-14T09:45:57;1.92;;;0.80;;
20637;SDS011;10478;49.004;8.470;2024-02-14T09:48:23;4.25;;;1.38;;
20637;SDS011;10478;49.004;8.470;2024-02-14T09:50:48;2.75;;;1.13;;
20637;SDS011;10478;49.004;8.470;2024-02-14T09:53:14;3.85;;;0.93;;
20637;SDS011;10478;49.004;8.470;2024-02-14T09:55:40;3.63;;;1.23;;
20637;SDS011;10478;49.004;8.470;2024-02-14T09:58:06;2.00;;;0.88;;
20637;SDS011;10478;49.004;8.470;2024-02-14T10:00:31;3.28;;;1.20;;
20637;SDS011;10478;49.004;8.470;2024-02-14T10:02:58;2.40;;;1.50;;
20637;SDS011;10478;49.004;8.470;2024-02-14T10:05:23;2.55;;;1.10;;
20637;SDS011;10478;49.004;8.470;2024-02-14T10:07:48;2.72;;;0.88;;
20637;SDS011;10478;49.004;8.470;2024-02-14T10:10:14;3.63;;;0.98;;
20637;SDS011;10478;49.004;8.470;2024-02-14T10:12:39;5.35;;;1.10;;
20637;SDS011;10478;49.004;8.470;2024-02-14T10:15:06;4.30;;;1.33;;
20637;SDS011;10478;49.004;8.470;2024-02-14T10:17:32;2.42;;;1.17;;
20637;SDS011;10478;49.004;8.470;2024-02-14T10:19:58;2.10;;;1.20;;
20637;SDS011;10478;49.004;8.470;2024-02-14T10:22:24;4.03;;;1.63;;
20637;SDS011;10478;49.004;8.470;2024-02-14T10:24:50;2.40;;;1.10;;
20637;SDS011;10478;49.004;8.470;2024-02-14T10:27:16;3.97;;;1.35;;
20637;SDS011;10478;49.004;8.470;2024-02-14T10:29:41;5.75;;;1.25;;
20637;SDS011;10478;49.004;8.470;2024-02-14T10:32:08;7.15;;;0.93;;
20637;SDS011;10478;49.004;8.470;2024-02-14T10:34:34;4.47;;;1.40;;
20637;SDS011;10478;49.004;8.470;2024-02-14T10:37:00;4.15;;;1.20;;
20637;SDS011;10478;49.004;8.470;2024-02-14T10:39:26;2.88;;;1.10;;
20637;SDS011;10478;49.004;8.470;2024-02-14T10:41:51;2.88;;;0.93;;
20637;SDS011;10478;49.004;8.470;2024-02-14T10:44:17;5.28;;;1.40;;
20637;SDS011;10478;49.004;8.470;2024-02-14T10:46:42;14.52;;;3.33;;
20637;SDS011;10478;49.004;8.470;2024-02-14T10:49:09;11.10;;;4.20;;
20637;SDS011;10478;49.004;8.470;2024-02-14T10:51:36;23.33;;;6.13;;
20637;SDS011;10478;49.004;8.470;2024-02-14T10:54:08;10.55;;;4.22;;
20637;SDS011;10478;49.004;8.470;2024-02-14T10:56:37;2.83;;;1.15;;
20637;SDS011;10478;49.004;8.470;2024-02-14T10:59:03;2.20;;;1.40;;
20637;SDS011;10478;49.004;8.470;2024-02-14T11:01:29;4.72;;;1.35;;
20637;SDS011;10478;49.004;8.470;2024-02-14T11:04:00;1.50;;;0.70;;
20637;SDS011;10478;49.004;8.470;2024-02-14T11:06:25;3.20;;;1.52;;
20637;SDS011;10478;49.004;8.470;2024-02-14T11:09:01;4.90;;;1.05;;
20637;SDS011;10478;49.004;8.470;2024-02-14T11:11:32;3.95;;;1.35;;
20637;SDS011;10478;49.004;8.470;2024-02-14T11:13:57;4.05;;;0.90;;
20637;SDS011;10478;49.004;8.470;2024-02-14T11:16:24;3.92;;;1.52;;
20637;SDS011;10478;49.004;8.470;2024-02-14T11:21:56;2.22;;;0.88;;
20637;SDS011;10478;49.004;8.470;2024-02-14T11:24:20;1.20;;;1.00;;
20637;SDS011;10478;49.004;8.470;2024-02-14T11:26:52;5.13;;;1.50;;
20637;SDS011;10478;49.004;8.470;2024-02-14T11:29:20;2.35;;;0.60;;
20637;SDS011;10478;49.004;8.470;2024-02-14T11:31:46;4.38;;;1.08;;
20637;SDS011;10478;49.004;8.470;2024-02-14T11:34:13;3.80;;;1.10;;
20637;SDS011;10478;49.004;8.470;2024-02-14T11:36:39;1.42;;;0.80;;
20637;SDS011;10478;49.004;8.470;2024-02-14T11:39:06;3.05;;;1.38;;
20637;SDS011;10478;49.004;8.470;2024-02-14T11:41:35;2.38;;;1.00;;
20637;SDS011;10478;49.004;8.470;2024-02-14T11:44:00;4.80;;;1.33;;
20637;SDS011;10478;49.004;8.470;2024-02-14T11:46:31;1.85;;;0.95;;
20637;SDS011;10478;49.004;8.470;2024-02-14T11:48:57;1.55;;;0.73;;
20637;SDS011;10478;49.004;8.470;2024-02-14T11:51:23;1.38;;;0.75;;
20637;SDS011;10478;49.004;8.470;2024-02-14T11:53:49;3.60;;;0.88;;
20637;SDS011;10478;49.004;8.470;2024-02-14T11:56:14;1.45;;;0.70;;
20637;SDS011;10478;49.004;8.470;2024-02-14T11:58:40;1.33;;;0.52;;
20637;SDS011;10478;49.004;8.470;2024-02-14T12:01:05;1.00;;;0.55;;
20637;SDS011;10478;49.004;8.470;2024-02-14T12:03:31;0.63;;;0.45;;
20637;SDS011;10478;49.004;8.470;2024-02-14T12:05:56;2.08;;;0.57;;
20637;SDS011;10478;49.004;8.470;2024-02-14T12:08:22;1.52;;;0.68;;
20637;SDS011;10478;49.004;8.470;2024-02-14T12:10:48;0.63;;;0.45;;
20637;SDS011;10478;49.004;8.470;2024-02-14T12:13:15;1.13;;;0.68;;
20637;SDS011;10478;49.004;8.470;2024-02-14T12:15:42;2.50;;;0.52;;
20637;SDS011;10478;49.004;8.470;2024-02-14T12:18:10;2.13;;;0.60;;
20637;SDS011;10478;49.004;8.470;2024-02-14T12:20:39;2.10;;;0.80;;
20637;SDS011;10478;49.004;8.470;2024-02-14T12:23:05;0.95;;;0.60;;
20637;SDS011;10478;49.004;8.470;2024-02-14T12:25:31;3.72;;;1.00;;
20637;SDS011;10478;49.004;8.470;2024-02-14T12:27:57;2.90;;;0.82;;
20637;SDS011;10478;49.004;8.470;2024-02-14T12:30:23;1.48;;;0.60;;
20637;SDS011;10478;49.004;8.470;2024-02-14T12:33:00;1.23;;;0.63;;
20637;SDS011;10478;49.004;8.470;2024-02-14T12:35:33;1.15;;;0.50;;
20637;SDS011;10478;49.004;8.470;2024-02-14T12:38:00;3.35;;;0.68;;
20637;SDS011;10478;49.004;8.470;2024-02-14T12:40:26;1.45;;;0.47;;
20637;SDS011;10478;49.004;8.470;2024-02-14T12:42:51;0.80;;;0.50;;
20637;SDS011;10478;49.004;8.470;2024-02-14T12:45:16;1.23;;;0.57;;
20637;SDS011;10478;49.004;8.470;2024-02-14T12:47:42;1.10;;;0.70;;
20637;SDS011;10478;49.004;8.470;2024-02-14T12:50:08;0.80;;;0.30;;
20637;SDS011;10478;49.004;8.470;2024-02-14T12:52:34;1.25;;;0.65;;
20637;SDS011;10478;49.004;8.470;2024-02-14T12:55:00;1.48;;;0.98;;
20637;SDS011;10478;49.004;8.470;2024-02-14T12:57:25;2.53;;;0.47;;
20637;SDS011;10478;49.004;8.470;2024-02-14T12:59:50;1.40;;;0.60;;
20637;SDS011;10478;49.004;8.470;2024-02-14T13:02:16;2.20;;;0.95;;
20637;SDS011;10478;49.004;8.470;2024-02-14T13:04:41;1.40;;;0.45;;
20637;SDS011;10478;49.004;8.470;2024-02-14T13:07:07;2.20;;;0.70;;
20637;SDS011;10478;49.004;8.470;2024-02-14T13:09:34;1.83;;;0.73;;
20637;SDS011;10478;49.004;8.470;2024-02-14T13:11:59;2.58;;;0.68;;
20637;SDS011;10478;49.004;8.470;2024-02-14T13:14:24;1.33;;;0.43;;
20637;SDS011;10478;49.004;8.470;2024-02-14T13:16:50;0.80;;;0.47;;
20637;SDS011;10478;49.004;8.470;2024-02-14T13:19:15;1.50;;;0.47;;
20637;SDS011;10478;49.004;8.470;2024-02-14T13:21:40;1.40;;;0.60;;
20637;SDS011;10478;49.004;8.470;2024-02-14T13:24:10;1.27;;;0.68;;
20637;SDS011;10478;49.004;8.470;2024-02-14T13:26:37;1.55;;;0.65;;
20637;SDS011;10478;49.004;8.470;2024-02-14T13:29:03;1.40;;;0.40;;
20637;SDS011;10478;49.004;8.470;2024-02-14T13:31:28;0.50;;;0.30;;
20637;SDS011;10478;49.004;8.470;2024-02-14T13:33:54;1.65;;;0.45;;
20637;SDS011;10478;49.004;8.470;2024-02-14T13:36:19;1.00;;;0.40;;
20637;SDS011;10478;49.004;8.470;2024-02-14T13:38:44;3.10;;;0.57;;
20637;SDS011;10478;49.004;8.470;2024-02-14T13:41:11;1.73;;;0.50;;
20637;SDS011;10478;49.004;8.470;2024-02-14T13:43:37;1.55;;;0.55;;
20637;SDS011;10478;49.004;8.470;2024-02-14T13:46:03;3.92;;;1.20;;
20637;SDS011;10478;49.004;8.470;2024-02-14T13:48:28;1.30;;;0.55;;
20637;SDS011;10478;49.004;8.470;2024-02-14T13:50:54;1.05;;;0.75;;
20637;SDS011;10478;49.004;8.470;2024-02-14T13:53:19;1.75;;;0.50;;
20637;SDS011;10478;49.004;8.470;2024-02-14T13:55:44;1.48;;;0.85;;
20637;SDS011;10478;49.004;8.470;2024-02-14T13:58:10;1.50;;;0.50;;
20637;SDS011;10478;49.004;8.470;2024-02-14T14:00:40;2.03;;;0.77;;
20637;SDS011;10478;49.004;8.470;2024-02-14T14:03:05;2.20;;;0.52;;
20637;SDS011;10478;49.004;8.470;2024-02-14T14:05:30;2.28;;;0.77;;
20637;SDS011;10478;49.004;8.470;2024-02-14T14:07:56;2.35;;;0.70;;
20637;SDS011;10478;49.004;8.470;2024-02-14T14:10:22;1.05;;;0.50;;
20637;SDS011;10478;49.004;8.470;2024-02-14T14:12:50;1.90;;;0.60;;
20637;SDS011;10478;49.004;8.470;2024-02-14T14:15:15;2.28;;;0.73;;
20637;SDS011;10478;49.004;8.470;2024-02-14T14:17:40;3.20;;;0.93;;
20637;SDS011;10478;49.004;8.470;2024-02-14T14:20:06;4.07;;;0.82;;
20637;SDS011;10478;49.004;8.470;2024-02-14T14:22:33;2.28;;;0.93;;
20637;SDS011;10478;49.004;8.470;2024-02-14T14:24:58;2.05;;;0.95;;
20637;SDS011;10478;49.004;8.470;2024-02-14T14:27:23;1.00;;;0.40;;
20637;SDS011;10478;49.004;8.470;2024-02-14T14:29:49;2.00;;;0.85;;
20637;SDS011;10478;49.004;8.470;2024-02-14T14:32:14;3.17;;;0.75;;
20637;SDS011;10478;49.004;8.470;2024-02-14T14:34:41;1.25;;;0.52;;
20637;SDS011;10478;49.004;8.470;2024-02-14T14:37:06;0.68;;;0.43;;
20637;SDS011;10478;49.004;8.470;2024-02-14T14:39:32;2.15;;;0.80;;
20637;SDS011;10478;49.004;8.470;2024-02-14T14:41:57;1.88;;;0.70;;
20637;SDS011;10478;49.004;8.470;2024-02-14T14:44:26;2.63;;;0.60;;
20637;SDS011;10478;49.004;8.470;2024-02-14T14:46:52;1.05;;;0.52;;